Time;durP1;ratioP1;P1;durP2;ratioP2;P2;SDS_P1;SDS_P2;PMS_P1;PMS_P2;Temp;Humidity;BMP_temperature;BMP_pressure;BME280_temperature;BME280_humidity;BME280_pressure;Samples;Min_cycle;Max_cycle;Signal;HPM_P1;HPM_P2
2022/01/10 00:02:13;;;;;;;31.27;21.30;;;;;;;-1.46;89.15;97306.55;1837237;77;21418;-63
2022/01/10 00:04:40;;;;;;;32.20;21.02;;;;;;;-1.52;89.16;97310.11;1847473;77;21090;-64
2022/01/10 00:07:07;;;;;;;36.28;21.52;;;;;;;-1.55;89.26;97308.45;1847220;77;20903;-57
2022/01/10 00:09:34;;;;;;;35.60;22.35;;;;;;;-1.55;89.39;97317.13;1847526;77;20895;-63
2022/01/10 00:12:01;;;;;;;36.35;21.33;;;;;;;-1.52;89.34;97320.63;1847298;77;20831;-60
2022/01/10 00:14:28;;;;;;;36.28;21.02;;;;;;;-1.54;89.37;97313.48;1847458;77;20851;-61
2022/01/10 00:16:56;;;;;;;35.03;21.52;;;;;;;-1.52;89.56;97323.25;1847375;77;20958;-60
2022/01/10 00:19:24;;;;;;;38.25;22.07;;;;;;;-1.49;89.45;97318.86;1847644;77;20883;-61
2022/01/10 00:21:52;;;;;;;37.05;22.05;;;;;;;-1.45;89.42;97321.30;1847430;77;20841;-63
2022/01/10 00:24:18;;;;;;;35.15;22.45;;;;;;;-1.49;89.38;97328.05;1847628;77;21445;-60
2022/01/10 00:26:45;;;;;;;36.77;22.25;;;;;;;-1.52;89.36;97332.44;1847654;77;20894;-62
2022/01/10 00:29:12;;;;;;;37.00;22.58;;;;;;;-1.56;89.52;97330.00;1847404;77;21673;-59
2022/01/10 00:31:38;;;;;;;35.05;22.82;;;;;;;-1.57;89.62;97334.14;1847366;77;20950;-63
2022/01/10 00:34:05;;;;;;;32.60;21.20;;;;;;;-1.59;89.65;97337.01;1847424;77;20863;-61
2022/01/10 00:36:32;;;;;;;35.90;22.45;;;;;;;-1.58;89.71;97335.97;1847282;77;20914;-58
2022/01/10 00:39:00;;;;;;;36.13;22.60;;;;;;;-1.57;89.68;97343.34;1847322;77;20942;-62
2022/01/10 00:41:27;;;;;;;35.08;22.50;;;;;;;-1.65;89.85;97341.07;1847403;77;21090;-63
2022/01/10 00:43:54;;;;;;;34.13;22.50;;;;;;;-1.66;89.89;97340.27;1847348;77;20820;-62
2022/01/10 00:46:21;;;;;;;32.58;21.45;;;;;;;-1.68;90.06;97344.95;1847525;77;20942;-64
2022/01/10 00:48:48;;;;;;;35.08;22.37;;;;;;;-1.66;90.20;97340.77;1847544;77;21322;-58
2022/01/10 00:51:15;;;;;;;34.88;22.62;;;;;;;-1.66;90.22;97338.95;1847442;77;20878;-58
2022/01/10 00:53:43;;;;;;;37.10;22.52;;;;;;;-1.64;90.29;97346.08;1847775;77;21067;-63
2022/01/10 00:56:11;;;;;;;35.55;21.37;;;;;;;-1.64;90.35;97347.91;1847238;77;20848;-62
2022/01/10 00:58:37;;;;;;;35.85;21.30;;;;;;;-1.62;90.48;97344.02;1847695;77;20954;-60
2022/01/10 01:01:04;;;;;;;32.65;20.55;;;;;;;-1.61;90.50;97348.27;1847374;77;20910;-62
2022/01/10 01:03:32;;;;;;;33.83;21.33;;;;;;;-1.62;90.58;97349.28;1840909;77;20919;-61
2022/01/10 01:05:59;;;;;;;36.83;20.88;;;;;;;-1.62;90.68;97351.91;1835826;78;21777;-61
2022/01/10 01:08:28;;;;;;;35.05;19.73;;;;;;;-1.64;90.68;97350.02;1835502;78;20915;-63
2022/01/10 01:11:30;;;;;;;35.05;20.60;;;;;;;-1.63;90.75;97354.27;1835987;78;21355;-63
2022/01/10 01:13:52;;;;;;;39.55;21.60;;;;;;;-1.67;90.75;97358.34;1832364;78;20919;-57
2022/01/10 01:24:06;;;;;;;36.42;21.50;;;;;;;-1.74;91.18;97354.22;1835601;78;21295;-62
2022/01/10 01:26:45;;;;;;;36.77;22.05;;;;;;;-1.73;91.18;97361.90;1835685;78;20895;-58
2022/01/10 01:29:18;;;;;;;38.73;23.32;;;;;;;-1.77;91.16;97366.01;1835566;78;20852;-59
2022/01/10 01:31:45;;;;;;;35.60;21.95;;;;;;;-1.81;91.24;97369.28;1835648;77;21751;-63
2022/01/10 01:34:13;;;;;;;34.63;21.35;;;;;;;-1.85;91.37;97368.95;1814473;78;20825;-63
2022/01/10 01:36:41;;;;;;;35.63;20.30;;;;;;;-1.90;91.37;97368.83;1835870;78;20931;-62
2022/01/10 01:39:19;;;;;;;39.78;21.60;;;;;;;-1.96;91.48;97375.00;1835544;78;20966;-62
2022/01/10 01:41:41;;;;;;;35.38;21.23;;;;;;;-1.97;91.54;97372.58;1834560;77;20892;-63
2022/01/10 01:44:08;;;;;;;36.50;20.88;;;;;;;-1.97;91.67;97376.01;1835632;78;21782;-61
2022/01/10 01:46:35;;;;;;;29.35;17.52;;;;;;;-1.96;91.70;97380.25;1835396;78;20899;-63
2022/01/10 01:49:04;;;;;;;28.70;17.60;;;;;;;-1.94;91.89;97384.75;1835521;78;20891;-58
2022/01/10 01:51:31;;;;;;;26.15;15.50;;;;;;;-1.91;91.84;97386.94;1835549;78;20907;-62
2022/01/10 01:53:58;;;;;;;18.20;12.10;;;;;;;-1.88;91.85;97386.46;1835687;78;20962;-62
2022/01/10 01:56:25;;;;;;;17.77;11.83;;;;;;;-1.84;91.64;97380.27;1814808;78;21079;-63
2022/01/10 01:58:53;;;;;;;18.87;12.18;;;;;;;-1.85;91.57;97386.53;1835398;78;20821;-58
2022/01/10 02:01:21;;;;;;;20.25;13.40;;;;;;;-1.86;91.57;97387.57;1814893;78;20915;-62
2022/01/10 02:03:48;;;;;;;19.05;13.68;;;;;;;-1.87;91.63;97398.58;1841678;77;20950;-61
2022/01/10 02:06:17;;;;;;;14.15;11.12;;;;;;;-1.89;91.57;97400.63;1847321;77;21552;-64
2022/01/10 02:08:43;;;;;;;15.53;10.60;;;;;;;-1.91;91.68;97413.19;1847627;77;21067;-62
2022/01/10 02:11:13;;;;;;;12.50;9.20;;;;;;;-1.90;91.51;97416.59;1847145;77;20890;-63
2022/01/10 02:13:41;;;;;;;13.85;10.28;;;;;;;-1.91;91.43;97422.38;1847350;77;21018;-60
2022/01/10 02:16:19;;;;;;;12.23;9.48;;;;;;;-1.93;91.23;97424.39;1844714;77;20860;-61
2022/01/10 02:18:41;;;;;;;11.73;8.95;;;;;;;-1.99;91.19;97425.30;1846167;77;20886;-59
2022/01/10 02:21:09;;;;;;;9.95;8.58;;;;;;;-2.03;91.19;97418.91;1847224;77;21103;-58
2022/01/10 02:23:37;;;;;;;10.60;8.93;;;;;;;-2.09;91.08;97414.55;1847395;77;21359;-58
2022/01/10 02:26:05;;;;;;;12.93;9.58;;;;;;;-2.13;91.11;97416.02;1846291;77;20867;-59
2022/01/10 02:28:35;;;;;;;14.73;9.10;;;;;;;-2.15;91.11;97420.70;1847307;77;20835;-61
2022/01/10 02:31:04;;;;;;;11.93;9.13;;;;;;;-2.18;91.13;97421.94;1847279;77;20890;-63
2022/01/10 02:33:31;;;;;;;11.25;8.83;;;;;;;-2.21;91.15;97432.87;1847427;77;21141;-64
2022/01/10 02:36:18;;;;;;;10.18;8.80;;;;;;;-2.22;91.17;97433.91;1847288;77;20942;-59
2022/01/10 02:38:47;;;;;;;10.25;8.18;;;;;;;-2.23;91.25;97435.42;1845867;77;20938;-64
2022/01/10 02:41:27;;;;;;;11.93;8.08;;;;;;;-2.20;91.21;97434.98;1847516;77;20883;-60
2022/01/10 02:43:55;;;;;;;10.68;8.15;;;;;;;-2.19;91.09;97435.30;1847468;77;20852;-61
2022/01/10 02:46:23;;;;;;;10.85;8.05;;;;;;;-2.22;91.04;97438.35;1847705;77;21090;-63
2022/01/10 02:48:50;;;;;;;11.20;7.95;;;;;;;-2.22;91.05;97440.98;1847385;77;21430;-63
2022/01/10 02:51:16;;;;;;;9.13;7.33;;;;;;;-2.20;91.07;97445.48;1847888;77;20938;-61
2022/01/10 02:53:44;;;;;;;9.20;7.47;;;;;;;-2.20;91.00;97446.30;1847505;77;20898;-60
2022/01/10 02:56:11;;;;;;;10.68;7.37;;;;;;;-2.20;90.95;97440.23;1847531;77;20962;-58
2022/01/10 02:58:39;;;;;;;9.73;6.90;;;;;;;-2.16;90.97;97444.01;1847496;77;21102;-63
2022/01/10 03:01:06;;;;;;;8.63;7.60;;;;;;;-2.13;90.88;97442.26;1847633;77;20816;-57
2022/01/10 03:03:33;;;;;;;8.50;7.12;;;;;;;-2.16;90.67;97445.32;1843777;77;20887;-62
2022/01/10 03:06:00;;;;;;;9.35;6.53;;;;;;;-2.22;90.63;97443.60;1835701;78;20911;-60
2022/01/10 03:08:28;;;;;;;8.85;6.53;;;;;;;-2.27;90.58;97442.15;1835880;78;20962;-61
2022/01/10 03:10:56;;;;;;;7.50;6.00;;;;;;;-2.28;90.58;97453.66;1835592;78;21111;-64
2022/01/10 03:13:25;;;;;;;8.98;6.75;;;;;;;-2.31;90.62;97456.20;1835590;78;20894;-61
2022/01/10 03:15:52;;;;;;;10.80;7.50;;;;;;;-2.28;90.71;97457.59;1835695;78;20840;-59
2022/01/10 03:18:19;;;;;;;8.78;7.10;;;;;;;-2.25;90.63;97462.41;1835680;78;20943;-59
2022/01/10 03:20:46;;;;;;;8.28;6.37;;;;;;;-2.24;90.56;97466.64;1835915;78;21334;-62
2022/01/10 03:23:12;;;;;;;7.78;5.92;;;;;;;-2.26;90.44;97473.40;1835966;78;21156;-64
2022/01/10 03:25:40;;;;;;;7.40;5.80;;;;;;;-2.29;90.27;97471.74;1835481;78;20947;-63
2022/01/10 03:28:13;;;;;;;8.55;5.67;;;;;;;-2.31;90.30;97472.48;1835844;78;21081;-62
2022/01/10 03:30:38;;;;;;;8.20;5.90;;;;;;;-2.36;90.23;97474.45;1835338;78;20907;-58
2022/01/10 03:33:05;;;;;;;7.47;5.78;;;;;;;-2.37;90.19;97477.28;1835611;78;20911;-60
2022/01/10 03:35:34;;;;;;;7.45;5.53;;;;;;;-2.38;90.17;97476.47;1835434;78;21109;-63
2022/01/10 03:38:01;;;;;;;8.33;6.33;;;;;;;-2.38;90.19;97486.19;1835676;78;21366;-62
2022/01/10 03:40:30;;;;;;;8.15;6.47;;;;;;;-2.36;90.32;97485.45;1835709;78;20935;-63
2022/01/10 03:42:58;;;;;;;8.93;6.42;;;;;;;-2.33;90.12;97490.27;1836040;77;20954;-63
2022/01/10 03:45:26;;;;;;;8.63;6.90;;;;;;;-2.31;90.10;97494.78;1835648;78;20895;-64
2022/01/10 03:47:53;;;;;;;8.33;6.67;;;;;;;-2.32;90.01;97506.28;1835543;78;21137;-63
2022/01/10 03:50:21;;;;;;;6.55;5.62;;;;;;;-2.32;89.92;97508.40;1835573;78;21034;-62
2022/01/10 03:52:47;;;;;;;9.53;5.62;;;;;;;-2.31;89.83;97509.20;1836152;78;20868;-63
2022/01/10 03:55:14;;;;;;;7.03;5.37;;;;;;;-2.36;89.74;97516.93;1835603;78;20876;-61
2022/01/10 03:57:42;;;;;;;7.62;5.60;;;;;;;-2.37;89.79;97517.94;1836079;78;20868;-63
2022/01/10 04:00:11;;;;;;;9.73;5.95;;;;;;;-2.37;89.75;97523.19;1835873;78;21987;-63
2022/01/10 04:02:51;;;;;;;7.47;5.78;;;;;;;-2.39;89.63;97518.67;1835508;78;20821;-60
2022/01/10 04:05:14;;;;;;;6.87;5.30;;;;;;;-2.47;89.60;97516.36;1845347;77;20895;-63
2022/01/10 04:07:41;;;;;;;7.33;5.28;;;;;;;-2.52;89.53;97525.39;1847612;77;21395;-60
2022/01/10 04:10:08;;;;;;;5.45;4.50;;;;;;;-2.61;89.52;97527.98;1847533;77;21009;-64
2022/01/10 04:12:35;;;;;;;6.90;4.80;;;;;;;-2.64;89.62;97532.37;1847555;77;21848;-63
2022/01/10 04:15:03;;;;;;;6.85;4.92;;;;;;;-2.65;89.63;97530.75;1847271;77;20847;-63
2022/01/10 04:20:07;;;;;;;6.22;4.47;;;;;;;-2.62;89.65;97534.27;1847610;77;20902;-60
2022/01/10 04:22:35;;;;;;;7.95;5.53;;;;;;;-2.62;89.56;97531.64;1847735;77;21363;-61
2022/01/10 04:25:03;;;;;;;6.97;5.17;;;;;;;-2.63;89.59;97541.82;1847424;77;21092;-58
2022/01/10 04:27:32;;;;;;;6.95;5.22;;;;;;;-2.64;89.62;97542.86;1847246;77;20950;-61
2022/01/10 04:29:59;;;;;;;8.08;5.67;;;;;;;-2.66;89.59;97552.23;1847257;77;20950;-62
2022/01/10 04:32:29;;;;;;;6.62;5.58;;;;;;;-2.64;89.71;97552.03;1847607;77;20863;-58
2022/01/10 04:34:56;;;;;;;9.25;5.10;;;;;;;-2.61;89.71;97558.13;1847363;77;20820;-60
2022/01/10 04:37:23;;;;;;;7.08;4.78;;;;;;;-2.58;89.52;97559.02;1847430;77;21050;-57
2022/01/10 04:39:50;;;;;;;7.33;5.78;;;;;;;-2.59;89.47;97570.55;1847456;77;20954;-62
2022/01/10 04:42:17;;;;;;;7.20;5.37;;;;;;;-2.59;89.51;97575.79;1847305;77;20993;-59
2022/01/10 04:44:43;;;;;;;8.20;4.90;;;;;;;-2.58;89.46;97578.19;1847298;77;20871;-60
2022/01/10 04:47:10;;;;;;;6.22;4.85;;;;;;;-2.58;89.31;97586.55;1847449;77;21504;-62
2022/01/10 04:50:04;;;;;;;5.92;4.95;;;;;;;-2.60;89.24;97591.22;1847276;77;21094;-60
2022/01/10 04:52:06;;;;;;;6.90;5.03;;;;;;;-2.61;89.19;97589.09;1843165;77;20895;-59
2022/01/10 04:54:33;;;;;;;6.10;4.78;;;;;;;-2.61;89.15;97599.59;1847255;77;20863;-61
2022/01/10 04:57:00;;;;;;;11.30;5.80;;;;;;;-2.64;89.18;97597.42;1847454;77;21445;-62
2022/01/10 04:59:26;;;;;;;7.80;5.53;;;;;;;-2.63;89.17;97607.37;1847426;77;20852;-64
2022/01/10 05:01:53;;;;;;;8.50;5.97;;;;;;;-2.61;89.09;97609.27;1847502;77;21338;-58
2022/01/10 05:04:20;;;;;;;7.00;5.50;;;;;;;-2.62;89.05;97612.92;1847349;77;20871;-58
2022/01/10 05:06:47;;;;;;;7.15;4.78;;;;;;;-2.62;88.97;97615.05;1847275;77;20981;-60
2022/01/10 05:09:14;;;;;;;6.90;5.25;;;;;;;-2.65;88.78;97618.09;1847563;77;21422;-58
2022/01/10 05:11:49;;;;;;;7.25;4.80;;;;;;;-2.69;88.83;97617.42;1847227;77;20907;-57
2022/01/10 05:14:17;;;;;;;6.12;4.97;;;;;;;-2.70;88.76;97621.05;1847277;77;21094;-63
2022/01/10 05:16:44;;;;;;;6.92;4.90;;;;;;;-2.73;88.74;97618.88;1847423;77;20847;-59
2022/01/10 05:19:11;;;;;;;8.68;5.78;;;;;;;-2.78;88.65;97615.06;1847294;77;21532;-59
2022/01/10 05:21:38;;;;;;;7.97;5.85;;;;;;;-2.85;88.71;97624.80;1847330;77;20962;-58
2022/01/10 05:24:07;;;;;;;7.60;5.85;;;;;;;-2.89;88.83;97626.25;1847261;77;20896;-58
2022/01/10 05:26:35;;;;;;;8.20;5.65;;;;;;;-2.91;88.96;97630.09;1847264;77;21014;-61
2022/01/10 05:29:02;;;;;;;6.60;5.15;;;;;;;-2.91;89.02;97638.77;1847425;77;20867;-61
2022/01/10 05:31:33;;;;;;;8.80;6.28;;;;;;;-2.91;89.07;97642.70;1847279;77;21422;-63
2022/01/10 05:34:01;;;;;;;6.95;5.35;;;;;;;-2.89;89.04;97643.28;1846013;77;21418;-63
2022/01/10 05:36:28;;;;;;;8.30;5.70;;;;;;;-2.87;89.10;97649.61;1847385;77;20954;-63
2022/01/10 05:38:56;;;;;;;8.70;5.40;;;;;;;-2.88;89.03;97648.03;1847255;77;21161;-63
2022/01/10 05:41:24;;;;;;;9.08;5.70;;;;;;;-2.90;89.08;97648.22;1847563;77;20883;-59
2022/01/10 05:43:55;;;;;;;7.90;5.53;;;;;;;-2.91;89.17;97651.88;1847257;77;20828;-60
2022/01/10 05:46:20;;;;;;;7.58;6.00;;;;;;;-2.93;89.18;97660.46;1847012;77;20923;-59
2022/01/10 05:48:51;;;;;;;9.10;6.45;;;;;;;-2.95;89.28;97661.19;1847440;77;20954;-58
2022/01/10 05:51:16;;;;;;;8.75;6.35;;;;;;;-2.95;89.40;97667.73;1847084;77;21848;-59
2022/01/10 05:53:44;;;;;;;10.20;6.78;;;;;;;-2.92;89.45;97676.46;1847281;77;21362;-63
2022/01/10 05:56:12;;;;;;;9.28;6.70;;;;;;;-2.88;89.44;97678.17;1847463;77;20832;-61
2022/01/10 05:58:41;;;;;;;10.70;6.17;;;;;;;-2.88;89.44;97680.78;1845127;77;21458;-64
2022/01/10 06:01:07;;;;;;;10.03;7.25;;;;;;;-2.89;89.43;97688.34;1847461;77;20946;-63
2022/01/10 06:03:36;;;;;;;10.03;6.80;;;;;;;-2.88;89.54;97692.08;1846905;77;21101;-61
2022/01/10 06:06:04;;;;;;;8.58;6.22;;;;;;;-2.84;89.36;97693.25;1847176;77;20891;-59
2022/01/10 06:08:32;;;;;;;10.53;6.45;;;;;;;-2.88;89.08;97703.88;1847452;77;21375;-63
2022/01/10 06:10:59;;;;;;;10.05;6.17;;;;;;;-2.96;89.03;97708.55;1847206;77;20891;-61
2022/01/10 06:13:27;;;;;;;8.88;6.65;;;;;;;-3.00;89.13;97713.42;1846351;77;21477;-63
2022/01/10 06:15:55;;;;;;;10.32;7.17;;;;;;;-2.99;89.04;97724.19;1847315;77;21098;-58
2022/01/10 06:18:22;;;;;;;9.70;7.03;;;;;;;-3.04;88.89;97725.32;1847450;77;20971;-58
2022/01/10 06:20:48;;;;;;;12.47;6.62;;;;;;;-3.09;88.87;97726.98;1847319;77;20879;-58
2022/01/10 06:23:16;;;;;;;15.40;7.15;;;;;;;-3.13;88.84;97734.97;1847622;77;20891;-59
2022/01/10 06:25:44;;;;;;;13.25;6.92;;;;;;;-3.15;88.89;97739.09;1847348;77;20894;-59
2022/01/10 06:28:11;;;;;;;10.88;7.78;;;;;;;-3.14;88.96;97747.27;1847716;77;21050;-63
2022/01/10 06:30:38;;;;;;;10.35;7.83;;;;;;;-3.08;88.98;97750.34;1847318;77;21341;-61
2022/01/10 06:33:05;;;;;;;10.72;7.67;;;;;;;-3.05;88.91;97755.17;1847521;77;20962;-63
2022/01/10 06:35:34;;;;;;;12.07;7.50;;;;;;;-3.05;88.71;97756.48;1832940;77;20868;-60
2022/01/10 06:38:01;;;;;;;11.22;7.03;;;;;;;-3.09;88.69;97759.23;1830394;78;20884;-61
2022/01/10 06:40:29;;;;;;;10.63;7.42;;;;;;;-3.12;88.70;97763.57;1830258;78;21110;-64
2022/01/10 06:42:57;;;;;;;10.10;7.47;;;;;;;-3.11;88.59;97770.41;1830495;78;20967;-59
2022/01/10 06:45:25;;;;;;;11.55;6.92;;;;;;;-3.12;88.56;97775.36;1830303;78;20836;-59
2022/01/10 06:47:52;;;;;;;10.95;6.60;;;;;;;-3.13;88.30;97783.45;1830877;78;21343;-59
2022/01/10 06:50:20;;;;;;;11.53;7.22;;;;;;;-3.17;88.19;97783.04;1830262;78;20966;-61
2022/01/10 06:52:55;;;;;;;11.85;7.05;;;;;;;-3.16;88.15;97784.66;1829614;78;21465;-58
2022/01/10 06:55:24;;;;;;;10.68;6.90;;;;;;;-3.14;88.01;97790.49;1788459;79;20960;-60
2022/01/10 06:57:53;;;;;;;11.28;7.10;;;;;;;-3.18;87.81;97791.90;1791163;80;20899;-59
2022/01/10 07:00:22;;;;;;;9.85;6.97;;;;;;;-3.21;87.65;97796.77;1789878;80;20958;-63
2022/01/10 07:02:51;;;;;;;10.68;6.28;;;;;;;-3.27;87.65;97794.45;1775758;78;21474;-62
2022/01/10 07:05:18;;;;;;;11.93;7.35;;;;;;;-3.30;87.61;97801.44;1788217;79;21184;-57
2022/01/10 07:07:48;;;;;;;11.25;7.10;;;;;;;-3.28;87.60;97805.97;1777910;80;21039;-58
2022/01/10 07:10:23;;;;;;;12.18;7.67;;;;;;;-3.27;87.58;97802.84;1797954;77;20876;-57
2022/01/10 07:12:52;;;;;;;10.00;6.70;;;;;;;-3.22;87.35;97803.81;1819419;77;20896;-64
2022/01/10 07:15:21;;;;;;;10.65;6.87;;;;;;;-3.18;87.28;97812.08;1825302;78;20963;-58
2022/01/10 07:17:50;;;;;;;9.73;6.80;;;;;;;-3.21;87.16;97815.10;1808039;78;21094;-65
2022/01/10 07:20:16;;;;;;;9.15;6.78;;;;;;;-3.23;87.12;97814.02;1758862;79;20919;-62
2022/01/10 07:22:44;;;;;;;13.68;8.58;;;;;;;-3.20;87.00;97822.74;1759893;80;20922;-63
2022/01/10 07:25:11;;;;;;;14.55;8.10;;;;;;;-3.20;87.00;97830.60;1819668;77;20943;-60
2022/01/10 07:27:39;;;;;;;13.20;8.28;;;;;;;-3.19;86.92;97823.05;1798930;78;21521;-65
2022/01/10 07:30:07;;;;;;;9.08;6.80;;;;;;;-3.18;86.95;97827.80;1815101;77;21380;-59
2022/01/10 07:32:34;;;;;;;13.40;8.15;;;;;;;-3.13;86.93;97834.53;1824695;77;20880;-63
2022/01/10 07:35:01;;;;;;;14.83;8.90;;;;;;;-3.09;86.87;97835.22;1813410;77;20912;-61
2022/01/10 07:37:27;;;;;;;14.98;9.40;;;;;;;-3.05;86.84;97842.14;1823864;77;20955;-59
2022/01/10 07:39:54;;;;;;;9.65;6.72;;;;;;;-3.01;86.70;97843.33;1825242;77;20952;-61
2022/01/10 07:42:23;;;;;;;10.75;7.03;;;;;;;-3.07;86.27;97845.48;1834122;77;20974;-61
2022/01/10 07:44:51;;;;;;;13.43;7.58;;;;;;;-3.13;86.30;97840.55;1824239;78;21399;-58
2022/01/10 07:47:18;;;;;;;13.70;8.15;;;;;;;-3.17;86.21;97843.30;1824630;78;20937;-60
2022/01/10 07:49:45;;;;;;;13.95;8.30;;;;;;;-3.21;86.27;97855.20;1820355;77;20880;-59
2022/01/10 07:52:11;;;;;;;9.95;7.80;;;;;;;-3.21;86.29;97851.78;1829575;77;20943;-62
2022/01/10 07:54:38;;;;;;;12.58;9.00;;;;;;;-3.19;86.32;97851.06;1816649;77;21603;-64
2022/01/10 07:57:06;;;;;;;15.53;8.98;;;;;;;-3.19;86.24;97853.19;1803888;77;20963;-57
2022/01/10 07:59:33;;;;;;;11.40;7.67;;;;;;;-3.18;86.16;97857.92;1806544;78;20907;-61
2022/01/10 08:02:00;;;;;;;17.23;7.95;;;;;;;-3.18;86.10;97856.08;1800865;78;20919;-60
2022/01/10 08:04:26;;;;;;;15.35;7.35;;;;;;;-3.18;86.03;97854.77;1811297;78;20982;-61
2022/01/10 08:06:53;;;;;;;14.13;8.45;;;;;;;-3.15;86.01;97859.61;1817588;78;21106;-60
2022/01/10 08:09:21;;;;;;;16.52;8.65;;;;;;;-3.12;85.86;97863.63;1813522;77;20880;-59
2022/01/10 08:11:48;;;;;;;18.75;8.25;;;;;;;-3.11;85.71;97863.42;1813104;78;21074;-59
2022/01/10 08:14:15;;;;;;;19.42;11.30;;;;;;;-3.10;85.64;97870.78;1824229;78;20928;-62
2022/01/10 08:16:42;;;;;;;15.60;9.68;;;;;;;-3.09;85.67;97873.71;1815784;78;20932;-59
2022/01/10 08:19:10;;;;;;;19.57;11.57;;;;;;;-3.08;85.67;97886.59;1812192;78;21012;-64
2022/01/10 08:21:39;;;;;;;15.45;9.60;;;;;;;-3.04;85.52;97888.31;1812938;77;20966;-59
2022/01/10 08:24:06;;;;;;;15.93;9.60;;;;;;;-3.02;85.37;97896.27;1810122;77;21095;-57
2022/01/10 08:26:33;;;;;;;13.83;9.80;;;;;;;-3.00;85.37;97899.48;1811963;78;21050;-59
2022/01/10 08:29:01;;;;;;;16.97;9.48;;;;;;;-2.99;85.10;97911.56;1832774;77;21038;-67
2022/01/10 08:31:27;;;;;;;14.55;9.08;;;;;;;-3.03;84.97;97901.20;1831375;77;21553;-65
2022/01/10 08:33:54;;;;;;;16.07;9.53;;;;;;;-3.04;85.04;97912.67;1839598;77;21042;-62
2022/01/10 08:36:27;;;;;;;12.78;7.80;;;;;;;-2.99;85.10;97913.40;1832895;77;21055;-60
2022/01/10 08:39:33;;;;;;;12.90;8.40;;;;;;;-2.98;84.69;97922.85;1785317;80;21434;-61
2022/01/10 08:42:01;;;;;;;15.23;8.75;;;;;;;-3.01;84.69;97918.02;1763889;78;21046;-59
2022/01/10 08:44:30;;;;;;;13.60;8.55;;;;;;;-2.98;84.81;97927.59;1768680;79;21159;-64
2022/01/10 08:46:58;;;;;;;12.85;8.55;;;;;;;-2.94;84.86;97926.16;1775239;80;20989;-59
2022/01/10 08:49:25;;;;;;;14.00;9.35;;;;;;;-2.90;84.75;97928.66;1768340;80;21367;-64
2022/01/10 08:51:57;;;;;;;12.40;8.45;;;;;;;-2.86;84.82;97931.20;1730144;79;20931;-60
2022/01/10 08:54:26;;;;;;;12.75;8.73;;;;;;;-2.82;84.77;97930.26;1775017;78;21054;-64
2022/01/10 08:56:53;;;;;;;399.88;90.53;;;;;;;-2.76;84.85;97934.16;1788291;80;21076;-62
2022/01/10 08:59:22;;;;;;;40.58;36.68;;;;;;;-2.66;84.60;97940.28;1765057;81;20982;-58
2022/01/10 09:01:49;;;;;;;58.13;14.65;;;;;;;-2.63;84.50;97939.06;1756988;81;21055;-62
2022/01/10 09:04:16;;;;;;;44.60;41.42;;;;;;;-2.62;84.38;97942.81;1781733;79;21477;-58
2022/01/10 09:06:48;;;;;;;13.78;9.55;;;;;;;-2.58;84.27;97941.88;1748865;80;20984;-65
2022/01/10 09:09:15;;;;;;;13.18;9.28;;;;;;;-2.52;84.17;97937.13;1750357;81;21097;-60
2022/01/10 09:11:44;;;;;;;16.55;10.48;;;;;;;-2.45;84.14;97935.28;1745884;80;21019;-60
2022/01/10 09:14:13;;;;;;;19.15;9.88;;;;;;;-2.36;83.88;97936.14;1759754;80;21022;-65
2022/01/10 09:16:41;;;;;;;16.62;9.88;;;;;;;-2.30;83.54;97939.73;1761138;80;21071;-58
2022/01/10 09:19:08;;;;;;;18.73;10.50;;;;;;;-2.22;83.28;97943.43;1768791;80;21280;-60
2022/01/10 09:21:35;;;;;;;20.95;10.45;;;;;;;-2.11;82.87;97941.44;1775388;80;21556;-66
2022/01/10 09:24:03;;;;;;;18.35;10.23;;;;;;;-2.05;82.39;97943.74;1775952;80;21018;-61
2022/01/10 09:26:29;;;;;;;17.48;10.43;;;;;;;-2.01;82.10;97946.23;1774014;80;21450;-60
2022/01/10 09:28:59;;;;;;;17.27;10.80;;;;;;;-1.97;81.91;97950.84;1758754;80;37773;-58
2022/01/10 09:31:26;;;;;;;18.92;12.10;;;;;;;-1.93;81.80;97949.40;1747749;81;20956;-68
2022/01/10 09:33:55;;;;;;;19.67;11.90;;;;;;;-1.89;81.74;97947.98;1772745;80;21128;-68
2022/01/10 09:36:25;;;;;;;22.45;13.45;;;;;;;-1.84;81.77;97952.09;1791935;79;21447;-61
2022/01/10 09:38:52;;;;;;;57.13;13.03;;;;;;;-1.79;81.54;97960.11;1785566;79;20919;-62
2022/01/10 09:41:20;;;;;;;17.82;12.28;;;;;;;-1.83;81.22;97961.56;1784612;79;20925;-59
2022/01/10 09:43:51;;;;;;;15.15;10.63;;;;;;;-1.90;81.34;97962.11;1776744;79;21044;-62
2022/01/10 09:46:18;;;;;;;65.97;14.63;;;;;;;-1.93;81.43;97966.46;1769321;79;21183;-62
2022/01/10 09:48:46;;;;;;;23.90;12.10;;;;;;;-1.96;81.50;97964.78;1764383;79;21043;-61
2022/01/10 09:51:13;;;;;;;17.20;9.95;;;;;;;-2.00;81.63;97961.76;1777949;80;21023;-59
2022/01/10 09:53:39;;;;;;;14.93;10.10;;;;;;;-2.02;81.54;97958.55;1738639;80;21052;-66
2022/01/10 09:56:06;;;;;;;62.03;32.95;;;;;;;-2.07;81.52;97963.62;1761734;80;20881;-62
2022/01/10 09:58:32;;;;;;;51.55;42.50;;;;;;;-2.05;81.65;97961.61;1751805;80;21117;-62
2022/01/10 10:01:01;;;;;;;59.63;14.53;;;;;;;-2.02;81.47;97966.42;1747601;80;21023;-59
2022/01/10 10:03:28;;;;;;;20.72;11.03;;;;;;;-2.00;81.59;97959.13;1761775;80;21076;-62
2022/01/10 10:05:56;;;;;;;15.80;11.28;;;;;;;-2.02;81.54;97962.98;1761862;80;21010;-57
2022/01/10 10:08:25;;;;;;;15.78;11.05;;;;;;;-2.07;81.54;97968.87;1778944;80;20965;-62
2022/01/10 10:10:52;;;;;;;17.00;11.43;;;;;;;-2.08;81.61;97972.52;1778344;80;21205;-68
2022/01/10 10:13:21;;;;;;;18.10;12.05;;;;;;;-2.11;81.36;97975.06;1777909;80;20962;-64
2022/01/10 10:15:49;;;;;;;10.05;8.58;;;;;;;-2.15;81.47;97977.81;1779318;80;21065;-61
2022/01/10 10:18:17;;;;;;;1999.90;999.90;;;;;;;-2.22;81.47;97978.85;1778169;80;21072;-59
2022/01/10 10:20:44;;;;;;;62.43;56.37;;;;;;;-2.28;81.68;97978.36;1778860;80;20967;-61
2022/01/10 10:23:15;;;;;;;46.70;6.92;;;;;;;-2.31;81.71;97980.89;1778717;80;21121;-59
2022/01/10 10:25:55;;;;;;;156.00;107.32;;;;;;;-2.31;81.88;97987.98;1777593;80;20894;-62
2022/01/10 10:28:24;;;;;;;50.30;8.00;;;;;;;-2.31;81.81;97995.32;1757629;80;21447;-61
2022/01/10 10:30:57;;;;;;;1023.05;518.15;;;;;;;-2.32;81.86;97992.92;1762508;80;21003;-63
2022/01/10 10:33:25;;;;;;;17.77;11.30;;;;;;;-2.31;81.83;97998.47;1759833;80;20988;-62
2022/01/10 10:36:08;;;;;;;13.08;8.93;;;;;;;-2.32;81.95;97998.98;1779626;80;21147;-61
2022/01/10 10:38:33;;;;;;;17.07;11.08;;;;;;;-2.37;81.92;97993.55;1779551;80;20949;-63
2022/01/10 10:41:02;;;;;;;1999.90;999.90;;;;;;;-2.47;81.99;98000.26;1779555;80;20956;-63
2022/01/10 10:43:33;;;;;;;1507.60;751.77;;;;;;;-2.54;82.18;98006.03;1769831;80;20981;-63
2022/01/10 10:46:08;;;;;;;194.37;36.23;;;;;;;-2.60;82.45;98004.22;1766547;80;20983;-62
2022/01/10 10:48:35;;;;;;;1116.18;527.00;;;;;;;-2.59;82.71;98005.84;1763982;80;21077;-64
2022/01/10 10:51:02;;;;;;;250.30;77.53;;;;;;;-2.58;82.88;98000.38;1752422;80;20963;-67
2022/01/10 10:53:29;;;;;;;114.08;22.80;;;;;;;-2.58;82.84;98004.81;1770707;80;21059;-66
2022/01/10 10:56:00;;;;;;;136.18;31.02;;;;;;;-2.62;82.85;98012.80;1757865;80;21066;-60
2022/01/10 10:58:27;;;;;;;359.62;97.27;;;;;;;-2.65;82.97;98015.83;1763324;80;21561;-63
2022/01/10 11:00:55;;;;;;;225.45;54.23;;;;;;;-2.63;82.92;98021.16;1770205;80;21163;-65
2022/01/10 11:03:22;;;;;;;113.90;85.12;;;;;;;-2.57;82.55;98022.17;1779253;80;20884;-64
2022/01/10 11:05:50;;;;;;;72.12;63.15;;;;;;;-2.59;81.89;98016.33;1761464;80;21074;-68
2022/01/10 11:08:18;;;;;;;563.92;301.92;;;;;;;-2.60;81.89;98014.70;1752171;81;20985;-65
2022/01/10 11:10:46;;;;;;;48.40;44.75;;;;;;;-2.61;81.81;98009.15;1748034;82;21484;-66
2022/01/10 11:13:13;;;;;;;1999.90;999.90;;;;;;;-2.61;81.85;98015.20;1808880;79;21117;-62
2022/01/10 11:15:39;;;;;;;1999.90;999.90;;;;;;;-2.63;81.64;98012.48;1808647;79;20973;-64
2022/01/10 11:18:08;;;;;;;1999.90;999.90;;;;;;;-2.64;81.64;98017.45;1809000;79;20946;-60
2022/01/10 11:20:47;;;;;;;1999.90;999.90;;;;;;;-2.65;81.72;98022.38;1809155;79;20858;-61
2022/01/10 11:23:14;;;;;;;1999.90;999.90;;;;;;;-2.63;81.74;98026.91;1808079;79;20910;-63
2022/01/10 11:25:42;;;;;;;1999.90;999.90;;;;;;;-2.62;81.59;98018.05;1808972;79;21523;-62
2022/01/10 11:28:23;;;;;;;1999.90;999.90;;;;;;;-2.63;81.56;98027.72;1808260;79;21060;-59
2022/01/10 11:30:54;;;;;;;1999.90;999.90;;;;;;;-2.67;81.56;98020.47;1808114;79;20921;-65
2022/01/10 11:33:26;;;;;;;1999.90;999.90;;;;;;;-2.67;81.46;98030.46;1808400;79;20970;-61
2022/01/10 11:35:59;;;;;;;1999.90;999.90;;;;;;;-2.67;81.63;98037.52;1808654;79;21382;-59
2022/01/10 11:38:39;;;;;;;1999.90;999.90;;;;;;;-2.67;81.73;98037.52;1792981;79;21075;-59